createdAt,value
2023-05-19T00:00:20.305Z,0.00
2023-05-19T00:01:20.309Z,0.00
2023-05-19T00:02:20.309Z,0.00
2023-05-19T00:03:20.408Z,0.00
2023-05-19T00:04:20.424Z,0.00
2023-05-19T00:05:20.400Z,0.00
2023-05-19T00:06:20.253Z,0.00
2023-05-19T00:07:20.225Z,0.00
2023-05-19T00:08:20.220Z,0.00
2023-05-19T00:09:20.197Z,0.00
2023-05-19T00:10:20.358Z,0.00
2023-05-19T00:11:20.174Z,0.00
2023-05-19T00:12:20.219Z,0.00
2023-05-19T00:13:20.187Z,0.00
2023-05-19T00:14:20.194Z,0.00
2023-05-19T00:15:20.140Z,0.00
2023-05-19T00:16:20.232Z,0.00
2023-05-19T00:17:20.119Z,0.00
2023-05-19T00:18:20.121Z,0.00
2023-05-19T00:19:20.286Z,0.00
2023-05-19T00:20:20.076Z,0.00
2023-05-19T00:21:20.075Z,0.00
2023-05-19T00:22:20.094Z,0.00
2023-05-19T00:23:20.046Z,0.00
2023-05-19T00:24:20.054Z,0.00
2023-05-19T00:25:20.025Z,0.00
2023-05-19T00:26:20.028Z,0.00
2023-05-19T00:27:20.004Z,0.00
2023-05-19T00:28:20.040Z,0.00
2023-05-19T00:29:20.005Z,0.00
2023-05-19T00:30:19.973Z,0.00
2023-05-19T00:31:20.010Z,0.00
2023-05-19T00:32:19.951Z,0.00
2023-05-19T00:33:19.935Z,0.00
2023-05-19T00:34:20.031Z,0.00
2023-05-19T00:35:19.939Z,0.00
2023-05-19T00:36:19.921Z,0.00
2023-05-19T00:37:19.902Z,0.00
2023-05-19T00:38:19.887Z,0.00
2023-05-19T00:39:19.877Z,0.00
2023-05-19T00:40:19.924Z,0.00
2023-05-19T00:41:19.908Z,0.00
2023-05-19T00:42:19.848Z,0.00
2023-05-19T00:43:19.832Z,0.00
2023-05-19T00:44:19.872Z,0.00
2023-05-19T00:45:19.805Z,0.00
2023-05-19T00:46:19.900Z,0.00
2023-05-19T00:47:19.982Z,0.00
2023-05-19T00:48:19.791Z,0.00
2023-05-19T00:49:19.772Z,0.00
2023-05-19T00:50:19.762Z,0.00
2023-05-19T00:51:19.784Z,0.00
2023-05-19T00:52:19.774Z,0.00
2023-05-19T00:53:19.731Z,0.00
2023-05-19T00:54:19.741Z,0.00
2023-05-19T00:55:19.698Z,0.00
2023-05-19T00:56:19.690Z,0.00
2023-05-19T00:57:19.677Z,0.00
2023-05-19T00:58:19.724Z,0.00
2023-05-19T00:59:19.651Z,0.00
2023-05-19T01:00:19.668Z,0.00
2023-05-19T01:01:19.641Z,0.00
2023-05-19T01:02:19.625Z,0.00
2023-05-19T01:03:19.704Z,0.00
2023-05-19T01:04:19.635Z,0.00
2023-05-19T01:05:19.592Z,0.00
2023-05-19T01:06:19.582Z,0.00
2023-05-19T01:07:19.593Z,0.00
2023-05-19T01:08:19.558Z,0.00
2023-05-19T01:09:19.568Z,0.00
2023-05-19T01:10:19.632Z,0.00
2023-05-19T01:11:19.532Z,0.00
2023-05-19T01:12:19.532Z,0.00
2023-05-19T01:13:19.506Z,0.00
2023-05-19T01:14:19.525Z,0.00
2023-05-19T01:15:19.488Z,0.00
2023-05-19T01:16:19.617Z,0.00
2023-05-19T01:17:19.459Z,0.00
2023-05-19T01:18:19.454Z,0.00
2023-05-19T01:19:19.482Z,0.00
2023-05-19T01:20:19.455Z,0.00
2023-05-19T01:21:19.419Z,0.00
2023-05-19T01:22:19.500Z,0.00
2023-05-19T01:23:19.424Z,0.00
2023-05-19T01:24:19.388Z,0.00
2023-05-19T01:25:19.394Z,0.00
2023-05-19T01:26:19.382Z,0.00
2023-05-19T01:27:19.361Z,0.00
2023-05-19T01:28:19.375Z,0.00
2023-05-19T01:29:19.348Z,0.00
2023-05-19T01:30:19.338Z,0.00
2023-05-19T01:31:19.356Z,0.00
2023-05-19T01:32:19.328Z,0.00
2023-05-19T01:33:19.293Z,0.00
2023-05-19T01:34:19.317Z,0.00
2023-05-19T01:35:19.324Z,0.00
2023-05-19T01:36:19.276Z,0.00
2023-05-19T01:37:19.256Z,0.00
2023-05-19T01:38:19.238Z,0.00
2023-05-19T01:39:19.250Z,0.00
2023-05-19T01:40:19.264Z,0.00
2023-05-19T01:41:19.213Z,0.00
2023-05-19T01:42:19.216Z,0.00
2023-05-19T01:43:19.179Z,0.00
2023-05-19T01:44:19.176Z,0.00
2023-05-19T01:45:19.162Z,0.00
2023-05-19T01:46:19.227Z,0.00
2023-05-19T01:47:19.143Z,0.00
2023-05-19T01:48:19.142Z,0.00
2023-05-19T01:49:19.129Z,0.00
2023-05-19T01:50:19.125Z,0.00
2023-05-19T01:51:19.099Z,0.00
2023-05-19T01:52:19.142Z,0.00
2023-05-19T01:53:19.078Z,0.00
2023-05-19T01:54:19.095Z,0.00
2023-05-19T01:55:19.087Z,0.00
2023-05-19T01:56:19.050Z,0.00
2023-05-19T01:57:19.037Z,0.00
2023-05-19T01:58:19.095Z,0.00
2023-05-19T01:59:19.009Z,0.00
2023-05-19T02:00:19.892Z,0.00
2023-05-19T02:01:19.006Z,0.00
2023-05-19T02:02:18.984Z,0.00
2023-05-19T02:03:18.983Z,0.00
2023-05-19T02:04:19.138Z,0.00
2023-05-19T02:05:18.944Z,0.00
2023-05-19T02:06:18.954Z,0.00
2023-05-19T02:07:18.927Z,0.00
2023-05-19T02:08:18.925Z,0.00
2023-05-19T02:09:18.924Z,0.00
2023-05-19T02:10:18.909Z,0.00
2023-05-19T02:11:18.899Z,0.00
2023-05-19T02:12:18.940Z,0.00
2023-05-19T02:13:18.854Z,0.00
2023-05-19T02:14:18.863Z,0.00
2023-05-19T02:15:18.841Z,0.00
2023-05-19T02:16:19.050Z,0.00
2023-05-19T02:17:18.816Z,0.00
2023-05-19T02:18:18.825Z,0.00
2023-05-19T02:19:18.873Z,0.00
2023-05-19T02:20:18.785Z,0.00
2023-05-19T02:21:18.777Z,0.00
2023-05-19T02:22:18.840Z,0.00
2023-05-19T02:23:18.748Z,0.00
2023-05-19T02:24:18.766Z,0.00
2023-05-19T02:25:18.725Z,0.00
2023-05-19T02:26:18.716Z,0.00
2023-05-19T02:27:18.738Z,0.00
2023-05-19T02:28:18.741Z,0.00
2023-05-19T02:29:18.678Z,0.00
2023-05-19T02:30:18.673Z,0.00
2023-05-19T02:31:18.720Z,0.00
2023-05-19T02:32:18.880Z,0.00
2023-05-19T02:33:18.645Z,0.00
2023-05-19T02:34:18.688Z,0.00
2023-05-19T02:35:18.614Z,0.00
2023-05-19T02:36:18.632Z,0.00
2023-05-19T02:37:18.636Z,0.00
2023-05-19T02:38:18.586Z,0.00
2023-05-19T02:39:18.580Z,0.00
2023-05-19T02:40:18.625Z,0.00
2023-05-19T02:41:18.570Z,0.00
2023-05-19T02:42:18.542Z,0.00
2023-05-19T02:43:18.942Z,0.00
2023-05-19T02:44:18.548Z,0.00
2023-05-19T02:45:18.518Z,0.00
2023-05-19T02:46:18.637Z,0.00
2023-05-19T02:47:18.489Z,0.00
2023-05-19T02:48:18.517Z,0.00
2023-05-19T02:49:18.470Z,0.00
2023-05-19T02:50:18.460Z,0.00
2023-05-19T02:51:18.444Z,0.00
2023-05-19T02:52:18.522Z,0.00
2023-05-19T02:53:18.445Z,0.00
2023-05-19T02:54:18.420Z,0.00
2023-05-19T02:55:18.412Z,0.00
2023-05-19T02:56:18.407Z,0.00
2023-05-19T02:57:18.417Z,0.00
2023-05-19T02:58:18.422Z,0.00
2023-05-19T02:59:18.426Z,0.00
2023-05-19T03:00:18.355Z,0.00
2023-05-19T03:01:18.371Z,0.00
2023-05-19T03:02:18.351Z,0.00
2023-05-19T03:03:18.429Z,0.00
2023-05-19T03:04:18.364Z,0.00
2023-05-19T03:05:18.300Z,0.00
2023-05-19T03:06:18.298Z,0.00
2023-05-19T03:07:18.302Z,0.00
2023-05-19T03:08:18.267Z,0.00
2023-05-19T03:09:18.251Z,0.00
2023-05-19T03:10:18.277Z,0.00
2023-05-19T03:11:18.234Z,0.00
2023-05-19T03:12:18.222Z,0.00
2023-05-19T03:13:18.224Z,0.00
2023-05-19T03:14:18.199Z,0.00
2023-05-19T03:15:18.218Z,4.00
2023-05-19T03:16:18.256Z,4.00
2023-05-19T03:17:18.210Z,0.00
2023-05-19T03:18:18.214Z,0.00
2023-05-19T03:19:18.347Z,4.00
2023-05-19T03:20:18.139Z,4.00
2023-05-19T03:21:18.119Z,0.00
2023-05-19T03:22:18.189Z,0.00
2023-05-19T03:23:18.122Z,4.00
2023-05-19T03:24:18.158Z,0.00
2023-05-19T03:25:18.087Z,4.00
2023-05-19T03:26:18.072Z,4.00
2023-05-19T03:27:18.104Z,4.00
2023-05-19T03:28:18.121Z,4.00
2023-05-19T03:29:18.070Z,4.00
2023-05-19T03:30:18.032Z,4.00
2023-05-19T03:31:18.085Z,4.00
2023-05-19T03:32:18.074Z,8.00
2023-05-19T03:33:18.196Z,8.00
2023-05-19T03:34:18.067Z,4.00
2023-05-19T03:35:17.980Z,8.00
2023-05-19T03:36:17.974Z,8.00
2023-05-19T03:37:17.995Z,8.00
2023-05-19T03:38:17.945Z,8.00
2023-05-19T03:39:17.942Z,8.00
2023-05-19T03:40:18.021Z,12.00
2023-05-19T03:41:17.930Z,12.00
2023-05-19T03:42:17.903Z,16.00
2023-05-19T03:43:17.906Z,16.00
2023-05-19T03:44:17.908Z,16.00
2023-05-19T03:45:17.872Z,20.00
2023-05-19T03:46:18.064Z,20.00
2023-05-19T03:47:17.872Z,24.00
2023-05-19T03:48:20.376Z,24.00
2023-05-19T03:49:17.835Z,24.00
2023-05-19T03:50:17.814Z,28.00
2023-05-19T03:51:17.823Z,28.00
2023-05-19T03:52:17.878Z,28.00
2023-05-19T03:53:17.787Z,28.00
2023-05-19T03:54:17.774Z,36.00
2023-05-19T03:55:17.766Z,36.00
2023-05-19T03:56:17.754Z,36.00
2023-05-19T03:57:17.761Z,40.00
2023-05-19T03:58:17.764Z,44.00
2023-05-19T03:59:17.714Z,44.00
2023-05-19T04:00:17.711Z,44.00
2023-05-19T04:01:17.709Z,48.00
2023-05-19T04:02:17.711Z,52.00
2023-05-19T04:03:17.784Z,52.00
2023-05-19T04:04:17.756Z,56.00
2023-05-19T04:05:17.656Z,60.00
2023-05-19T04:06:17.648Z,64.00
2023-05-19T04:07:17.632Z,68.00
2023-05-19T04:08:17.623Z,72.00
2023-05-19T04:09:17.652Z,76.00
2023-05-19T04:10:17.642Z,80.00
2023-05-19T04:11:17.589Z,80.00
2023-05-19T04:12:17.574Z,84.00
2023-05-19T04:13:17.578Z,88.00
2023-05-19T04:14:17.557Z,96.00
2023-05-19T04:15:17.542Z,96.00
2023-05-19T04:16:17.706Z,100.00
2023-05-19T04:17:17.600Z,104.00
2023-05-19T04:18:17.541Z,108.00
2023-05-19T04:19:17.863Z,108.00
2023-05-19T04:20:17.485Z,116.00
2023-05-19T04:21:17.488Z,116.00
2023-05-19T04:22:17.485Z,120.00
2023-05-19T04:23:17.482Z,124.00
2023-05-19T04:24:17.456Z,128.00
2023-05-19T04:25:17.448Z,132.00
2023-05-19T04:26:17.437Z,136.00
2023-05-19T04:27:17.412Z,140.00
2023-05-19T04:28:17.435Z,144.00
2023-05-19T04:29:17.401Z,148.00
2023-05-19T04:30:18.580Z,152.00
2023-05-19T04:31:17.422Z,156.00
2023-05-19T04:32:17.437Z,160.00
2023-05-19T04:33:17.342Z,164.00
2023-05-19T04:34:17.395Z,172.00
2023-05-19T04:35:17.362Z,172.00
2023-05-19T04:36:17.319Z,176.00
2023-05-19T04:37:17.313Z,180.00
2023-05-19T04:38:17.334Z,184.00
2023-05-19T04:39:17.279Z,188.00
2023-05-19T04:40:17.319Z,196.00
2023-05-19T04:41:17.288Z,200.00
2023-05-19T04:42:17.258Z,208.00
2023-05-19T04:43:17.257Z,212.00
2023-05-19T04:44:17.234Z,212.00
2023-05-19T04:45:17.219Z,216.00
2023-05-19T04:46:17.317Z,228.00
2023-05-19T04:47:17.212Z,232.00
2023-05-19T04:48:17.272Z,236.00
2023-05-19T04:49:17.172Z,240.00
2023-05-19T04:50:17.260Z,248.00
2023-05-19T04:51:17.168Z,256.00
2023-05-19T04:52:17.250Z,264.00
2023-05-19T04:53:17.134Z,272.00
2023-05-19T04:54:17.121Z,284.00
2023-05-19T04:55:17.172Z,292.00
2023-05-19T04:56:17.098Z,288.00
2023-05-19T04:57:17.142Z,288.00
2023-05-19T04:58:17.120Z,312.00
2023-05-19T04:59:17.067Z,336.00
2023-05-19T05:00:17.177Z,360.00
2023-05-19T05:01:17.066Z,380.00
2023-05-19T05:02:17.149Z,404.00
2023-05-19T05:03:17.068Z,428.00
2023-05-19T05:04:17.028Z,452.00
2023-05-19T05:05:16.998Z,472.00
2023-05-19T05:06:17.067Z,492.00
2023-05-19T05:07:17.003Z,516.00
2023-05-19T05:08:16.959Z,540.00
2023-05-19T05:09:16.955Z,564.00
2023-05-19T05:10:16.980Z,584.00
2023-05-19T05:11:16.934Z,604.00
2023-05-19T05:12:17.050Z,620.00
2023-05-19T05:13:16.936Z,636.00
2023-05-19T05:14:16.900Z,652.00
2023-05-19T05:15:16.887Z,664.00
2023-05-19T05:16:16.881Z,672.00
2023-05-19T05:17:16.890Z,684.00
2023-05-19T05:18:16.894Z,692.00
2023-05-19T05:19:16.853Z,700.00
2023-05-19T05:20:16.852Z,704.00
2023-05-19T05:21:16.827Z,704.00
2023-05-19T05:22:16.807Z,704.00
2023-05-19T05:23:16.896Z,716.00
2023-05-19T05:24:16.837Z,728.00
2023-05-19T05:25:16.786Z,740.00
2023-05-19T05:26:16.799Z,744.00
2023-05-19T05:27:16.785Z,756.00
2023-05-19T05:28:16.758Z,764.00
2023-05-19T05:29:16.733Z,776.00
2023-05-19T05:30:16.897Z,788.00
2023-05-19T05:31:16.716Z,804.00
2023-05-19T05:32:16.734Z,816.00
2023-05-19T05:33:16.854Z,832.00
2023-05-19T05:34:16.676Z,852.00
2023-05-19T05:35:16.682Z,868.00
2023-05-19T05:36:16.742Z,888.00
2023-05-19T05:37:16.674Z,912.00
2023-05-19T05:38:16.651Z,932.00
2023-05-19T05:39:16.653Z,956.00
2023-05-19T05:40:16.615Z,984.00
2023-05-19T05:41:16.634Z,1016.00
2023-05-19T05:42:16.680Z,1040.00
2023-05-19T05:43:16.605Z,1068.00
2023-05-19T05:44:16.573Z,1092.00
2023-05-19T05:45:16.567Z,1116.00
2023-05-19T05:46:16.604Z,1140.00
2023-05-19T05:47:16.538Z,1168.00
2023-05-19T05:48:16.673Z,1204.00
2023-05-19T05:49:16.528Z,1244.00
2023-05-19T05:50:16.530Z,1276.00
2023-05-19T05:51:16.502Z,1312.00
2023-05-19T05:52:16.513Z,1336.00
2023-05-19T05:53:16.508Z,1364.00
2023-05-19T05:54:16.568Z,1388.00
2023-05-19T05:55:16.485Z,1412.00
2023-05-19T05:56:16.455Z,1432.00
2023-05-19T05:57:16.461Z,1460.00
2023-05-19T05:58:16.431Z,1476.00
2023-05-19T05:59:16.420Z,1500.00
2023-05-19T06:00:16.553Z,1524.00
2023-05-19T06:01:16.396Z,1552.00
2023-05-19T06:02:16.432Z,1568.00
2023-05-19T06:03:17.193Z,1588.00
2023-05-19T06:04:16.422Z,1604.00
2023-05-19T06:05:16.440Z,1620.00
2023-05-19T06:06:16.362Z,1636.00
2023-05-19T06:07:16.374Z,1656.00
2023-05-19T06:08:16.372Z,1668.00
2023-05-19T06:09:16.326Z,1680.00
2023-05-19T06:10:16.320Z,1700.00
2023-05-19T06:11:16.336Z,1712.00
2023-05-19T06:12:16.425Z,1728.00
2023-05-19T06:13:16.352Z,1744.00
2023-05-19T06:14:16.375Z,1756.00
2023-05-19T06:15:16.265Z,1772.00
2023-05-19T06:16:16.478Z,1784.00
2023-05-19T06:17:16.234Z,1796.00
2023-05-19T06:18:16.347Z,1808.00
2023-05-19T06:19:16.295Z,1816.00
2023-05-19T06:20:16.244Z,1828.00
2023-05-19T06:21:16.191Z,1844.00
2023-05-19T06:22:16.221Z,1860.00
2023-05-19T06:23:16.176Z,1876.00
2023-05-19T06:24:16.156Z,1888.00
2023-05-19T06:25:16.159Z,1896.00
2023-05-19T06:26:16.354Z,1908.00
2023-05-19T06:27:16.229Z,1928.00
2023-05-19T06:28:16.371Z,1924.00
2023-05-19T06:29:16.103Z,1932.00
2023-05-19T06:30:16.148Z,1944.00
2023-05-19T06:31:16.145Z,1948.00
2023-05-19T06:32:16.059Z,1952.00
2023-05-19T06:33:16.059Z,1956.00
2023-05-19T06:34:16.136Z,1960.00
2023-05-19T06:35:16.029Z,1968.00
2023-05-19T06:36:16.034Z,1976.00
2023-05-19T06:37:16.032Z,1992.00
2023-05-19T06:38:16.013Z,2000.00
2023-05-19T06:39:15.994Z,2012.00
2023-05-19T06:40:15.997Z,2012.00
2023-05-19T06:41:16.144Z,2024.00
2023-05-19T06:42:15.949Z,2032.00
2023-05-19T06:43:16.002Z,2048.00
2023-05-19T06:44:16.156Z,2060.00
2023-05-19T06:45:15.952Z,2072.00
2023-05-19T06:46:15.909Z,2080.00
2023-05-19T06:47:16.273Z,2092.00
2023-05-19T06:48:16.230Z,2104.00
2023-05-19T06:49:16.233Z,2120.00
2023-05-19T06:50:15.901Z,2128.00
2023-05-19T06:51:19.772Z,2140.00
2023-05-19T06:52:17.194Z,2148.00
2023-05-19T06:53:18.726Z,2160.00
2023-05-19T06:54:21.252Z,2156.00
2023-05-19T06:55:15.956Z,2164.00
2023-05-19T06:56:18.537Z,2172.00
2023-05-19T06:57:17.047Z,2184.00
2023-05-19T06:58:15.862Z,2196.00
2023-05-19T06:59:19.669Z,2200.00
2023-05-19T07:00:17.950Z,2208.00
2023-05-19T07:01:16.398Z,2220.00
2023-05-19T07:02:16.074Z,2236.00
2023-05-19T07:03:15.866Z,2240.00
2023-05-19T07:04:15.939Z,2248.00
2023-05-19T07:05:15.787Z,2260.00
2023-05-19T07:06:15.786Z,2280.00
2023-05-19T07:07:15.701Z,2296.00
2023-05-19T07:08:15.709Z,2304.00
2023-05-19T07:09:15.672Z,2304.00
2023-05-19T07:10:15.725Z,2312.00
2023-05-19T07:11:15.633Z,2320.00
2023-05-19T07:12:15.630Z,2332.00
2023-05-19T07:13:15.616Z,2336.00
2023-05-19T07:14:15.711Z,2348.00
2023-05-19T07:15:15.631Z,2352.00
2023-05-19T07:16:15.651Z,2356.00
2023-05-19T07:17:15.808Z,2364.00
2023-05-19T07:18:15.559Z,2380.00
2023-05-19T07:19:15.679Z,2388.00
2023-05-19T07:20:15.554Z,2392.00
2023-05-19T07:21:15.581Z,2408.00
2023-05-19T07:22:15.632Z,2404.00
2023-05-19T07:23:17.376Z,2416.00
2023-05-19T07:24:15.503Z,2412.00
2023-05-19T07:25:15.493Z,2424.00
2023-05-19T07:26:15.592Z,2436.00
2023-05-19T07:27:15.490Z,2436.00
2023-05-19T07:28:15.444Z,2444.00
2023-05-19T07:29:15.507Z,2452.00
2023-05-19T07:30:15.569Z,2456.00
2023-05-19T07:31:15.479Z,2468.00
2023-05-19T07:32:15.464Z,2472.00
2023-05-19T07:33:15.433Z,2484.00
2023-05-19T07:34:15.381Z,2488.00
2023-05-19T07:35:15.378Z,2484.00
2023-05-19T07:36:15.377Z,2396.00
2023-05-19T07:37:15.384Z,2484.00
2023-05-19T07:38:15.346Z,2496.00
2023-05-19T07:39:15.425Z,2500.00
2023-05-19T07:40:15.328Z,2504.00
2023-05-19T07:41:15.317Z,2508.00
2023-05-19T07:42:15.294Z,2512.00
2023-05-19T07:43:15.332Z,2516.00
2023-05-19T07:44:15.271Z,2520.00
2023-05-19T07:45:15.294Z,2524.00
2023-05-19T07:46:15.317Z,2532.00
2023-05-19T07:47:15.264Z,2536.00
2023-05-19T07:48:15.297Z,2536.00
2023-05-19T07:49:15.483Z,2544.00
2023-05-19T07:50:15.213Z,2544.00
2023-05-19T07:51:15.196Z,2548.00
2023-05-19T07:52:15.185Z,2552.00
2023-05-19T07:53:15.231Z,2552.00
2023-05-19T07:54:15.164Z,2556.00
2023-05-19T07:55:15.187Z,2552.00
2023-05-19T07:56:15.149Z,2556.00
2023-05-19T07:57:15.137Z,2556.00
2023-05-19T07:58:15.151Z,2556.00
2023-05-19T07:59:15.115Z,2560.00
2023-05-19T08:00:15.102Z,2560.00
2023-05-19T08:01:15.124Z,2556.00
2023-05-19T08:02:15.090Z,2556.00
2023-05-19T08:03:15.219Z,2560.00
2023-05-19T08:04:15.153Z,2556.00
2023-05-19T08:05:15.073Z,2556.00
2023-05-19T08:06:15.048Z,2556.00
2023-05-19T08:07:15.060Z,2548.00
2023-05-19T08:08:15.004Z,2552.00
2023-05-19T08:09:15.008Z,2548.00
2023-05-19T08:10:14.990Z,2548.00
2023-05-19T08:11:14.992Z,2548.00
2023-05-19T08:12:14.964Z,2548.00
2023-05-19T08:13:15.008Z,2544.00
2023-05-19T08:14:14.980Z,2552.00
2023-05-19T08:15:14.954Z,2548.00
2023-05-19T08:16:14.952Z,2544.00
2023-05-19T08:17:14.922Z,2552.00
2023-05-19T08:18:14.928Z,2552.00
2023-05-19T08:19:15.004Z,2548.00
2023-05-19T08:20:14.921Z,2552.00
2023-05-19T08:21:14.884Z,2552.00
2023-05-19T08:22:14.873Z,2548.00
2023-05-19T08:23:14.865Z,2544.00
2023-05-19T08:24:14.838Z,2552.00
2023-05-19T08:25:14.881Z,2552.00
2023-05-19T08:26:14.821Z,2552.00
2023-05-19T08:27:14.814Z,2564.00
2023-05-19T08:28:14.821Z,2560.00
2023-05-19T08:29:14.798Z,2556.00
2023-05-19T08:30:14.789Z,2552.00
2023-05-19T08:31:14.814Z,2552.00
2023-05-19T08:32:14.763Z,2556.00
2023-05-19T08:33:14.859Z,2560.00
2023-05-19T08:34:14.730Z,2564.00
2023-05-19T08:35:14.758Z,2568.00
2023-05-19T08:36:14.713Z,2576.00
2023-05-19T08:37:14.754Z,2588.00
2023-05-19T08:38:14.709Z,2556.00
2023-05-19T08:39:14.686Z,2528.00
2023-05-19T08:40:14.692Z,2552.00
2023-05-19T08:41:14.672Z,2324.00
2023-05-19T08:42:14.656Z,2352.00
2023-05-19T08:43:14.669Z,2360.00
2023-05-19T08:44:16.139Z,2356.00
2023-05-19T08:45:14.632Z,2368.00
2023-05-19T08:46:14.638Z,2376.00
2023-05-19T08:47:14.602Z,2388.00
2023-05-19T08:48:14.662Z,2380.00
2023-05-19T08:49:14.595Z,2364.00
2023-05-19T08:50:14.583Z,2308.00
2023-05-19T08:51:14.604Z,2324.00
2023-05-19T08:52:14.540Z,2312.00
2023-05-19T08:53:28.932Z,2372.00
2023-05-19T08:54:15.517Z,2392.00
2023-05-19T08:55:14.547Z,2396.00
2023-05-19T08:56:14.523Z,2400.00
2023-05-19T08:57:14.532Z,2404.00
2023-05-19T08:58:14.476Z,2412.00
2023-05-19T08:59:14.501Z,2404.00
2023-05-19T09:00:14.457Z,2424.00
2023-05-19T09:01:14.527Z,2356.00
2023-05-19T09:02:14.431Z,2368.00
2023-05-19T09:04:14.588Z,2436.00
2023-05-19T09:05:14.411Z,2436.00
2023-05-19T09:06:14.419Z,2452.00
2023-05-19T09:07:14.415Z,2320.00
2023-05-19T09:08:14.373Z,2164.00
2023-05-19T09:09:14.370Z,2132.00
2023-05-19T09:10:14.348Z,2220.00
2023-05-19T09:11:14.330Z,2404.00
2023-05-19T09:12:14.329Z,2356.00
2023-05-19T09:13:14.353Z,2460.00
2023-05-19T09:14:14.334Z,2464.00
2023-05-19T09:15:15.197Z,2472.00
2023-05-19T09:16:14.282Z,2472.00
2023-05-19T09:17:14.288Z,2484.00
2023-05-19T09:18:14.295Z,2456.00
2023-05-19T09:19:14.282Z,2340.00
2023-05-19T09:20:14.241Z,2264.00
2023-05-19T09:21:14.263Z,2452.00
2023-05-19T09:22:14.217Z,1720.00
2023-05-19T09:23:14.231Z,2280.00
2023-05-19T09:24:14.217Z,2548.00
2023-05-19T09:25:14.188Z,2576.00
2023-05-19T09:26:14.216Z,2596.00
2023-05-19T09:27:14.166Z,2692.00
2023-05-19T09:28:14.158Z,2552.00
2023-05-19T09:29:14.143Z,2592.00
2023-05-19T09:30:14.155Z,2596.00
2023-05-19T09:31:14.156Z,2588.00
2023-05-19T09:32:14.171Z,2608.00
2023-05-19T09:33:14.150Z,2612.00
2023-05-19T09:34:14.212Z,2616.00
2023-05-19T09:35:14.117Z,2504.00
2023-05-19T09:36:14.071Z,2376.00
2023-05-19T09:37:14.057Z,2308.00
2023-05-19T09:38:14.088Z,2440.00
2023-05-19T09:39:14.063Z,1504.00
2023-05-19T09:40:14.067Z,1208.00
2023-05-19T09:41:14.024Z,2716.00
2023-05-19T09:42:14.013Z,2636.00
2023-05-19T09:43:13.986Z,1740.00
2023-05-19T09:44:14.036Z,2672.00
2023-05-19T09:45:13.967Z,2572.00
2023-05-19T09:46:14.782Z,2784.00
2023-05-19T09:47:13.945Z,832.00
2023-05-19T09:48:13.935Z,2508.00
2023-05-19T09:49:13.923Z,2732.00
2023-05-19T09:50:13.965Z,2716.00
2023-05-19T09:51:13.924Z,2620.00
2023-05-19T09:52:14.741Z,1748.00
2023-05-19T09:53:13.881Z,2752.00
2023-05-19T09:54:13.894Z,2956.00
2023-05-19T09:55:14.771Z,3248.00
2023-05-19T09:56:13.869Z,3336.00
2023-05-19T09:57:13.851Z,1904.00
2023-05-19T09:58:13.830Z,3300.00
2023-05-19T09:59:13.818Z,3248.00
2023-05-19T10:00:13.851Z,1152.00
2023-05-19T10:01:13.849Z,2012.00
2023-05-19T10:02:13.821Z,1312.00
2023-05-19T10:03:13.862Z,948.00
2023-05-19T10:04:13.764Z,900.00
2023-05-19T10:05:13.829Z,892.00
2023-05-19T10:06:13.760Z,1000.00
2023-05-19T10:07:13.729Z,956.00
2023-05-19T10:08:13.753Z,1008.00
2023-05-19T10:09:13.714Z,3960.00
2023-05-19T10:10:13.718Z,4016.00
2023-05-19T10:11:13.737Z,4012.00
2023-05-19T10:12:13.718Z,4076.00
2023-05-19T10:13:13.668Z,1204.00
2023-05-19T10:14:13.688Z,1028.00
2023-05-19T10:15:13.657Z,1544.00
2023-05-19T10:16:13.710Z,924.00
2023-05-19T10:17:13.631Z,908.00
2023-05-19T10:18:13.658Z,1172.00
2023-05-19T10:19:13.652Z,964.00
2023-05-19T10:20:13.626Z,788.00
2023-05-19T10:21:13.583Z,764.00
2023-05-19T10:22:13.591Z,772.00
2023-05-19T10:23:13.567Z,828.00
2023-05-19T10:24:13.552Z,2024.00
2023-05-19T10:25:13.540Z,1080.00
2023-05-19T10:26:13.560Z,1032.00
2023-05-19T10:27:13.534Z,2504.00
2023-05-19T10:28:13.537Z,2128.00
2023-05-19T10:29:13.512Z,1276.00
2023-05-19T10:30:14.412Z,3480.00
2023-05-19T10:31:13.474Z,1196.00
2023-05-19T10:32:13.514Z,3296.00
2023-05-19T10:33:13.513Z,2084.00
2023-05-19T10:34:13.472Z,2580.00
2023-05-19T10:35:13.449Z,1240.00
2023-05-19T10:36:13.449Z,880.00
2023-05-19T10:37:13.421Z,860.00
2023-05-19T10:38:13.426Z,1272.00
2023-05-19T10:39:13.411Z,1088.00
2023-05-19T10:40:13.408Z,2756.00
2023-05-19T10:41:13.395Z,2728.00
2023-05-19T10:42:13.386Z,2712.00
2023-05-19T10:43:13.403Z,960.00
2023-05-19T10:44:13.367Z,1000.00
2023-05-19T10:45:13.368Z,2496.00
2023-05-19T10:46:13.419Z,1220.00
2023-05-19T10:47:13.459Z,2544.00
2023-05-19T10:48:13.333Z,2508.00
2023-05-19T10:49:13.285Z,2492.00
2023-05-19T10:50:13.352Z,2464.00
2023-05-19T10:51:13.268Z,2124.00
2023-05-19T10:52:13.265Z,2484.00
2023-05-19T10:53:13.262Z,2540.00
2023-05-19T10:54:14.420Z,1732.00
2023-05-19T10:55:13.261Z,936.00
2023-05-19T10:56:13.226Z,916.00
2023-05-19T10:57:13.224Z,2604.00
2023-05-19T10:58:13.194Z,2656.00
2023-05-19T10:59:13.228Z,2564.00
2023-05-19T11:00:13.214Z,2460.00
2023-05-19T11:01:13.183Z,2464.00
2023-05-19T11:02:13.264Z,2464.00
2023-05-19T11:03:13.199Z,2480.00
2023-05-19T11:04:13.153Z,2476.00
2023-05-19T11:05:13.138Z,2496.00
2023-05-19T11:06:13.148Z,2464.00
2023-05-19T11:07:13.131Z,2456.00
2023-05-19T11:08:13.081Z,2472.00
2023-05-19T11:09:13.088Z,2512.00
2023-05-19T11:10:13.083Z,2524.00
2023-05-19T11:11:13.071Z,2180.00
2023-05-19T11:12:13.060Z,888.00
2023-05-19T11:13:14.878Z,836.00
2023-05-19T11:14:13.040Z,876.00
2023-05-19T11:15:13.046Z,1072.00
2023-05-19T11:16:13.037Z,1544.00
2023-05-19T11:17:12.984Z,872.00
2023-05-19T11:18:13.031Z,832.00
2023-05-19T11:19:13.054Z,984.00
2023-05-19T11:20:13.059Z,768.00
2023-05-19T11:21:12.999Z,708.00
2023-05-19T11:22:12.955Z,808.00
2023-05-19T11:23:12.946Z,2392.00
2023-05-19T11:24:12.914Z,2472.00
2023-05-19T11:25:12.939Z,2412.00
2023-05-19T11:26:12.913Z,2432.00
2023-05-19T11:27:12.877Z,2460.00
2023-05-19T11:28:12.891Z,2432.00
2023-05-19T11:29:12.864Z,2416.00
2023-05-19T11:30:12.850Z,2424.00
2023-05-19T11:31:12.861Z,2424.00
2023-05-19T11:32:13.000Z,2448.00
2023-05-19T11:33:12.866Z,2476.00
2023-05-19T11:34:12.802Z,1796.00
2023-05-19T11:35:12.798Z,2472.00
2023-05-19T11:36:12.821Z,2484.00
2023-05-19T11:37:12.833Z,2300.00
2023-05-19T11:38:12.762Z,2376.00
2023-05-19T11:39:12.748Z,2460.00
2023-05-19T11:40:12.758Z,1372.00
2023-05-19T11:41:12.743Z,2400.00
2023-05-19T11:42:12.726Z,2296.00
2023-05-19T11:43:12.744Z,2320.00
2023-05-19T11:44:12.782Z,2324.00
2023-05-19T11:45:12.778Z,2324.00
2023-05-19T11:46:12.783Z,2308.00
2023-05-19T11:47:12.693Z,2324.00
2023-05-19T11:48:12.774Z,2292.00
2023-05-19T11:49:12.700Z,708.00
2023-05-19T11:50:12.743Z,592.00
2023-05-19T11:51:12.624Z,520.00
2023-05-19T11:52:12.636Z,2072.00
2023-05-19T11:53:12.599Z,2196.00
2023-05-19T11:54:12.584Z,2072.00
2023-05-19T11:55:12.624Z,944.00
2023-05-19T11:56:12.581Z,1796.00
2023-05-19T11:57:12.566Z,2192.00
2023-05-19T11:58:12.550Z,2208.00
2023-05-19T11:59:12.533Z,2220.00
2023-05-19T12:00:12.603Z,2036.00
2023-05-19T12:01:12.566Z,2132.00
2023-05-19T12:02:12.548Z,2092.00
2023-05-19T12:03:12.551Z,2076.00
2023-05-19T12:04:12.498Z,2072.00
2023-05-19T12:05:12.492Z,2016.00
2023-05-19T12:06:12.493Z,2036.00
2023-05-19T12:07:12.499Z,2044.00
2023-05-19T12:08:12.444Z,2016.00
2023-05-19T12:09:12.439Z,1856.00
2023-05-19T12:10:12.437Z,2028.00
2023-05-19T12:11:12.397Z,2136.00
2023-05-19T12:12:12.418Z,2240.00
2023-05-19T12:13:12.398Z,2416.00
2023-05-19T12:14:12.371Z,2440.00
2023-05-19T12:15:12.369Z,2360.00
2023-05-19T12:16:12.368Z,2308.00
2023-05-19T12:17:12.355Z,2296.00
2023-05-19T12:18:12.440Z,2276.00
2023-05-19T12:19:12.381Z,1940.00
2023-05-19T12:20:12.315Z,1596.00
2023-05-19T12:21:12.844Z,1964.00
2023-05-19T12:22:12.283Z,2188.00
2023-05-19T12:23:12.283Z,2092.00
2023-05-19T12:24:12.299Z,1980.00
2023-05-19T12:25:12.273Z,1436.00
2023-05-19T12:26:12.240Z,1860.00
2023-05-19T12:27:12.261Z,2112.00
2023-05-19T12:28:12.252Z,2100.00
2023-05-19T12:29:12.209Z,2088.00
2023-05-19T12:30:12.220Z,2072.00
2023-05-19T12:31:12.241Z,2060.00
2023-05-19T12:32:12.176Z,2084.00